CST,Max TemperatureF,Mean TemperatureF,Min TemperatureF,Max Dew PointF,MeanDew PointF,Min DewpointF,Max Humidity, Mean Humidity, Min Humidity, Max Sea Level PressureIn, Mean Sea Level PressureIn, Min Sea Level PressureIn, Max VisibilityMiles, Mean VisibilityMiles, Min VisibilityMiles, Max Wind SpeedMPH, Mean Wind SpeedMPH, Max Gust SpeedMPH,PrecipitationIn, CloudCover, Events, WindDirDegrees
2012-12-1,46,40,33,46,38,32,100,91,81,30.19,29.97,29.79,10,3,0,9,2,,0.00,8,Fog-Rain,153
2012-12-2,46,44,41,46,39,36,100,87,81,30.05,29.95,29.79,7,5,1,6,3,,0.00,8,,282
2012-12-3,60,50,41,59,47,37,100,92,76,30.03,29.80,29.61,10,3,0,16,5,25,0.02,7,Fog-Rain,183
2012-12-4,44,34,24,37,24,10,76,58,41,30.32,30.03,29.84,10,10,10,18,9,32,0.00,0,,273
2012-12-5,33,26,19,27,19,14,80,69,52,30.44,30.34,30.17,10,10,10,10,4,,0.00,1,,188
2012-12-6,42,37,32,34,31,28,87,78,66,30.16,29.92,29.79,10,10,10,13,5,20,0.00,5,,207
2012-12-7,37,34,30,30,27,23,87,77,60,30.00,29.97,29.88,10,10,10,9,4,,0.00,2,,16
2012-12-8,37,32,26,27,23,18,86,71,48,30.17,30.06,29.98,10,10,10,9,6,,0.00,2,Snow,42
2012-12-9,33,30,26,32,28,21,100,88,74,30.16,29.97,29.74,10,6,1,12,7,16,0.00,7,Snow,54
2012-12-10,32,28,23,27,23,21,93,79,64,29.89,29.81,29.73,10,9,2,12,6,,0.00,6,Snow,341
2012-12-11,28,26,23,23,20,18,86,78,69,30.03,29.89,29.83,10,10,4,13,4,21,0.00,7,Snow,234
2012-12-12,39,26,14,28,21,12,93,76,61,30.17,30.10,30.03,10,9,5,12,4,24,0.00,2,,189
2012-12-13,41,32,24,27,24,21,86,67,49,30.11,30.05,29.99,10,10,7,8,5,,0.00,0,,220
2012-12-14,33,26,19,32,27,18,100,92,86,30.23,30.15,30.05,10,9,4,9,2,,0.00,4,,68
2012-12-15,39,36,32,37,35,32,100,94,87,30.04,29.75,29.51,10,3,0,12,6,17,0.20,8,Fog-Rain-Snow,83
2012-12-16,41,38,35,39,35,32,100,92,81,29.66,29.57,29.50,10,6,0,8,2,,0.00,8,Fog-Rain,271
2012-12-17,35,32,30,32,26,21,93,79,69,29.71,29.69,29.65,10,10,10,8,6,,0.00,8,,285
2012-12-18,32,29,24,25,23,21,86,75,69,29.82,29.72,29.68,10,10,10,7,1,,0.00,7,,30
2012-12-19,32,26,19,28,25,18,93,88,80,30.06,29.98,29.82,10,9,5,9,2,,0.00,5,,258
2012-12-20,33,32,30,32,31,28,100,91,81,29.97,29.59,29.39,10,3,0,21,13,32,0.04,8,Snow,19
2012-12-21,33,26,19,28,20,14,81,73,64,30.14,29.92,29.55,10,10,7,20,13,30,0.00,5,,316
2012-12-22,28,19,10,16,13,7,92,75,51,30.14,30.04,29.92,10,10,10,9,2,,0.00,0,,232
2012-12-23,28,20,12,19,14,10,93,75,51,30.05,30.01,29.92,10,10,10,12,3,,0.00,3,,318
2012-12-24,28,24,19,19,16,12,86,75,64,30.15,30.01,29.96,10,9,2,8,2,,0.00,7,Snow,12
2012-12-25,30,20,10,16,12,7,93,74,51,30.38,30.31,30.15,10,10,7,10,5,,0.00,2,,4
2012-12-26,26,20,14,21,15,9,86,77,68,30.35,30.24,30.17,10,10,10,15,7,,0.00,3,,19
2012-12-27,26,24,21,19,18,16,80,73,64,30.24,30.20,30.15,10,10,10,12,6,,0.00,8,Snow,6
2012-12-28,26,22,17,23,20,14,86,84,80,30.15,30.05,29.92,10,6,2,9,3,,0.00,7,Snow,48
2012-12-29,30,26,23,23,21,16,86,80,74,30.11,29.98,29.91,10,7,2,10,7,16,0.00,8,Snow,343
2012-12-30,23,19,15,16,11,10,86,72,63,30.22,30.09,29.90,10,9,4,9,4,,0.00,4,Snow,232
2012-12-31,24,16,8,19,11,1,86,69,54,30.15,30.00,29.87,10,9,7,12,6,18,0.00,3,Snow,287